createdAt,value
2023-02-12T00:05:01.280Z,100.00
2023-02-12T00:10:09.537Z,100.00
2023-02-12T00:15:15.315Z,100.00
2023-02-12T00:20:21.143Z,100.00
2023-02-12T00:25:27.032Z,100.00
2023-02-12T00:30:32.631Z,100.00
2023-02-12T00:35:38.663Z,100.00
2023-02-12T00:40:58.661Z,100.00
2023-02-12T00:46:05.301Z,99.98
2023-02-12T00:51:11.564Z,100.00
2023-02-12T00:56:17.290Z,100.00
2023-02-12T01:01:23.383Z,100.00
2023-02-12T01:06:29.470Z,100.00
2023-02-12T01:11:35.339Z,100.00
2023-02-12T01:16:41.127Z,100.00
2023-02-12T01:21:46.932Z,100.00
2023-02-12T01:26:52.544Z,100.00
2023-02-12T01:31:58.267Z,100.00
2023-02-12T01:37:04.181Z,100.00
2023-02-12T01:42:14.232Z,100.00
2023-02-12T01:47:20.289Z,100.00
2023-02-12T01:52:29.038Z,100.00
2023-02-12T01:57:38.543Z,99.60
2023-02-12T02:02:45.644Z,99.07
2023-02-12T02:07:54.112Z,99.12
2023-02-12T02:13:19.084Z,98.72
2023-02-12T02:18:33.714Z,97.92
2023-02-12T02:23:59.614Z,97.26
2023-02-12T02:29:41.022Z,96.89
2023-02-12T02:34:53.444Z,96.68
2023-02-12T02:40:09.752Z,96.78
2023-02-12T02:45:21.215Z,96.65
2023-02-12T02:50:29.385Z,96.30
2023-02-12T02:55:41.004Z,95.42
2023-02-12T03:00:54.962Z,94.69
2023-02-12T03:06:06.574Z,94.25
2023-02-12T03:11:17.911Z,94.46
2023-02-12T03:16:27.484Z,94.27
2023-02-12T03:21:37.305Z,94.53
2023-02-12T03:26:47.450Z,95.02
2023-02-12T03:32:16.088Z,95.14
2023-02-12T03:37:27.106Z,95.62
2023-02-12T03:42:44.110Z,95.73
2023-02-12T03:47:59.793Z,95.70
2023-02-12T03:53:06.322Z,95.61
2023-02-12T03:58:17.743Z,94.86
2023-02-12T04:03:24.367Z,94.70
2023-02-12T04:08:31.176Z,93.38
2023-02-12T04:13:47.161Z,92.55
2023-02-12T04:18:54.063Z,93.51
2023-02-12T04:24:07.020Z,94.16
2023-02-12T04:29:25.692Z,94.16
2023-02-12T04:34:40.467Z,94.34
2023-02-12T04:39:48.290Z,94.28
2023-02-12T04:44:54.844Z,93.83
2023-02-12T04:50:00.656Z,93.68
2023-02-12T04:55:07.307Z,93.66
2023-02-12T05:00:16.533Z,92.95
2023-02-12T05:05:22.829Z,92.68
2023-02-12T05:10:28.737Z,92.14
2023-02-12T05:15:34.416Z,91.11
2023-02-12T05:20:40.083Z,91.46
2023-02-12T05:25:45.724Z,91.50
2023-02-12T05:30:51.350Z,91.84
2023-02-12T05:36:03.037Z,92.04
2023-02-12T05:41:11.341Z,91.61
2023-02-12T05:46:18.019Z,91.52
2023-02-12T05:51:25.886Z,92.21
2023-02-12T05:56:33.380Z,91.69
2023-02-12T06:01:41.532Z,90.04
2023-02-12T06:06:47.041Z,89.26
2023-02-12T06:11:52.734Z,89.70
2023-02-12T06:16:58.628Z,90.62
2023-02-12T06:22:04.910Z,91.75
2023-02-12T06:27:10.659Z,92.79
2023-02-12T06:32:16.531Z,93.73
2023-02-12T06:37:22.141Z,94.06
2023-02-12T06:42:27.925Z,94.11
2023-02-12T06:47:33.656Z,93.88
2023-02-12T06:52:39.589Z,93.61
2023-02-12T06:57:45.270Z,88.52
2023-02-12T07:02:55.863Z,81.89
2023-02-12T07:08:05.397Z,74.17
2023-02-12T07:13:11.349Z,67.65
2023-02-12T07:18:17.049Z,65.59
2023-02-12T07:23:22.801Z,64.77
2023-02-12T07:28:28.897Z,61.52
2023-02-12T07:33:34.864Z,58.75
2023-02-12T07:38:42.889Z,57.91
2023-02-12T07:43:54.052Z,58.51
2023-02-12T07:49:01.133Z,60.26
2023-02-12T07:54:07.393Z,61.43
2023-02-12T07:59:15.722Z,62.26
2023-02-12T08:04:23.400Z,61.68
2023-02-12T08:09:32.776Z,58.12
2023-02-12T08:14:38.608Z,53.32
2023-02-12T08:19:44.283Z,49.06
2023-02-12T08:24:50.119Z,47.76
2023-02-12T08:29:55.688Z,45.74
2023-02-12T08:35:01.575Z,43.71
2023-02-12T08:40:10.993Z,44.07
2023-02-12T08:45:17.937Z,44.69
2023-02-12T08:50:23.607Z,46.78
2023-02-12T08:55:32.154Z,47.92
2023-02-12T09:00:40.407Z,48.06
2023-02-12T09:06:23.722Z,48.79
2023-02-12T09:11:30.887Z,49.48
2023-02-12T09:16:38.226Z,51.04
2023-02-12T09:21:44.266Z,52.32
2023-02-12T09:26:49.977Z,52.00
2023-02-12T09:31:55.915Z,51.52
2023-02-12T09:37:01.788Z,49.65
2023-02-12T09:42:26.289Z,47.98
2023-02-12T09:47:40.073Z,45.76
2023-02-12T09:52:46.599Z,44.48
2023-02-12T09:57:54.781Z,43.46
2023-02-12T10:03:06.092Z,42.05
2023-02-12T10:08:38.194Z,41.54
2023-02-12T10:13:53.983Z,41.36
2023-02-12T10:19:14.567Z,41.35
2023-02-12T10:24:35.244Z,41.02
2023-02-12T10:29:43.785Z,41.22
2023-02-12T10:34:51.444Z,41.50
2023-02-12T10:40:02.201Z,41.36
2023-02-12T10:45:16.638Z,41.73
2023-02-12T10:50:32.766Z,42.27
2023-02-12T10:55:38.317Z,43.38
2023-02-12T11:00:44.414Z,43.70
2023-02-12T11:05:50.222Z,44.09
2023-02-12T11:11:02.681Z,45.05
2023-02-12T11:16:09.453Z,45.09
2023-02-12T11:21:15.086Z,45.48
2023-02-12T11:26:29.736Z,45.66
2023-02-12T11:31:37.552Z,46.73
2023-02-12T11:36:45.425Z,46.84
2023-02-12T11:41:55.325Z,47.17
2023-02-12T11:47:07.030Z,47.71
2023-02-12T11:52:21.564Z,48.18
2023-02-12T11:57:47.218Z,48.44
2023-02-12T12:03:00.301Z,49.98
2023-02-12T12:08:15.967Z,50.55
2023-02-12T12:13:30.281Z,50.54
2023-02-12T12:19:04.964Z,50.41
2023-02-12T12:24:17.364Z,50.31
2023-02-12T12:29:30.507Z,50.13
2023-02-12T12:34:36.240Z,50.39
2023-02-12T12:39:57.908Z,51.22
2023-02-12T12:45:25.805Z,51.81
2023-02-12T12:50:52.543Z,51.88
2023-02-12T12:56:25.157Z,52.13
2023-02-12T13:01:50.414Z,52.55
2023-02-12T13:07:12.675Z,52.16
2023-02-12T13:12:36.364Z,51.44
2023-02-12T13:17:50.132Z,50.30
2023-02-12T13:23:01.054Z,50.85
2023-02-12T13:28:12.596Z,51.44
2023-02-12T13:33:21.475Z,52.10
2023-02-12T13:38:29.700Z,53.35
2023-02-12T13:44:01.739Z,54.16
2023-02-12T13:49:21.635Z,54.99
2023-02-12T13:54:45.908Z,55.70
2023-02-12T13:59:53.940Z,55.85
2023-02-12T14:05:00.856Z,56.54
2023-02-12T14:10:09.364Z,56.55
2023-02-12T14:15:29.930Z,56.72
2023-02-12T14:20:38.071Z,57.51
2023-02-12T14:25:47.053Z,58.33
2023-02-12T14:31:21.611Z,59.09
2023-02-12T14:36:42.802Z,59.28
2023-02-12T14:41:49.716Z,59.88
2023-02-12T14:46:57.079Z,60.39
2023-02-12T14:52:06.620Z,61.47
2023-02-12T14:57:21.837Z,62.65
2023-02-12T15:02:30.127Z,64.06
2023-02-12T15:07:41.296Z,65.13
2023-02-12T15:12:52.202Z,66.17
2023-02-12T15:18:03.715Z,67.07
2023-02-12T15:23:37.002Z,68.01
2023-02-12T15:28:46.161Z,68.98
2023-02-12T15:33:56.382Z,69.68
2023-02-12T15:39:04.908Z,70.32
2023-02-12T15:44:29.448Z,71.17
2023-02-12T15:49:37.987Z,72.05
2023-02-12T15:54:45.896Z,72.97
2023-02-12T15:59:55.198Z,73.76
2023-02-12T16:05:03.438Z,74.72
2023-02-12T16:10:14.658Z,75.82
2023-02-12T16:15:28.873Z,76.72
2023-02-12T16:20:35.187Z,77.94
2023-02-12T16:25:40.812Z,78.76
2023-02-12T16:30:48.423Z,79.94
2023-02-12T16:36:04.740Z,80.88
2023-02-12T16:41:27.721Z,81.20
2023-02-12T16:46:44.009Z,81.81
2023-02-12T16:51:50.422Z,82.56
2023-02-12T16:56:56.568Z,83.09
2023-02-12T17:02:04.444Z,83.38
2023-02-12T17:07:20.458Z,83.71
2023-02-12T17:12:27.002Z,84.38
2023-02-12T17:17:32.644Z,85.16
2023-02-12T17:22:38.511Z,86.49
2023-02-12T17:27:44.427Z,87.93
2023-02-12T17:32:51.343Z,89.08
2023-02-12T17:37:57.156Z,89.66
2023-02-12T17:43:03.922Z,90.02
2023-02-12T17:48:09.486Z,90.86
2023-02-12T17:53:15.061Z,91.61
2023-02-12T17:58:20.607Z,92.86
2023-02-12T18:03:26.425Z,93.99
2023-02-12T18:08:32.586Z,94.16
2023-02-12T18:13:39.408Z,94.26
2023-02-12T18:18:45.330Z,94.64
2023-02-12T18:23:52.924Z,94.87
2023-02-12T18:29:00.125Z,95.23
2023-02-12T18:34:08.009Z,95.18
2023-02-12T18:39:13.651Z,95.26
2023-02-12T18:44:19.354Z,95.59
2023-02-12T18:49:25.293Z,95.63
2023-02-12T18:54:31.334Z,95.95
2023-02-12T18:59:37.027Z,96.10
2023-02-12T19:04:43.165Z,96.45
2023-02-12T19:09:48.728Z,96.74
2023-02-12T19:14:54.469Z,97.24
2023-02-12T19:20:00.050Z,97.49
2023-02-12T19:25:07.174Z,97.75
2023-02-12T19:30:14.144Z,98.34
2023-02-12T19:35:20.178Z,99.07
2023-02-12T19:40:25.929Z,99.52
2023-02-12T19:45:34.550Z,99.53
2023-02-12T19:50:46.675Z,99.63
2023-02-12T19:55:52.633Z,99.97
2023-02-12T20:00:59.405Z,100.00
2023-02-12T20:06:09.488Z,100.00
2023-02-12T20:11:17.756Z,100.00
2023-02-12T20:16:26.633Z,100.00
2023-02-12T20:21:33.075Z,100.00
2023-02-12T20:26:39.696Z,100.00
2023-02-12T20:31:45.437Z,100.00
2023-02-12T20:36:51.217Z,100.00
2023-02-12T20:41:56.871Z,100.00
2023-02-12T20:47:02.910Z,100.00
2023-02-12T20:52:08.673Z,100.00
2023-02-12T20:57:14.724Z,100.00
2023-02-12T21:02:20.775Z,100.00
2023-02-12T21:07:26.735Z,100.00
2023-02-12T21:12:32.550Z,100.00
2023-02-12T21:17:38.293Z,100.00
2023-02-12T21:22:44.037Z,100.00
2023-02-12T21:27:49.934Z,100.00
2023-02-12T21:32:55.748Z,100.00
2023-02-12T21:38:01.478Z,100.00
2023-02-12T21:43:06.991Z,100.00
2023-02-12T21:48:12.486Z,100.00
2023-02-12T21:53:18.057Z,100.00
2023-02-12T21:58:23.588Z,100.00
2023-02-12T22:03:29.101Z,100.00
2023-02-12T22:08:35.511Z,100.00
2023-02-12T22:13:41.675Z,100.00
2023-02-12T22:18:49.084Z,100.00
2023-02-12T22:23:55.817Z,100.00
2023-02-12T22:29:05.799Z,100.00
2023-02-12T22:34:13.760Z,100.00
2023-02-12T22:39:21.375Z,100.00
2023-02-12T22:44:27.229Z,100.00
2023-02-12T22:49:33.437Z,100.00
2023-02-12T22:54:40.438Z,100.00
2023-02-12T22:59:46.872Z,100.00
2023-02-12T23:04:52.641Z,100.00
2023-02-12T23:09:58.331Z,100.00
2023-02-12T23:15:04.243Z,100.00
2023-02-12T23:20:12.085Z,100.00
2023-02-12T23:25:17.969Z,100.00
2023-02-12T23:30:23.823Z,100.00
2023-02-12T23:35:29.654Z,100.00
2023-02-12T23:40:35.993Z,100.00
2023-02-12T23:45:42.516Z,100.00
2023-02-12T23:50:49.930Z,100.00
2023-02-12T23:55:56.196Z,100.00
